sensor_id;sensor_type;location;lat;lon;timestamp;pressure;altitude;pressure_sealevel;temperature;humidity
38786;BME280;24535;45.508;12.252;2023-07-31T00:01:14;101200.50;;;28.25;58.87
38786;BME280;24535;45.508;12.252;2023-07-31T00:03:43;101198.22;;;28.22;58.92
38786;BME280;24535;45.508;12.252;2023-07-31T00:06:08;101200.50;;;28.19;58.97
38786;BME280;24535;45.508;12.252;2023-07-31T00:11:14;101195.94;;;28.13;58.94
38786;BME280;24535;45.508;12.252;2023-07-31T00:13:40;101195.09;;;28.12;59.10
38786;BME280;24535;45.508;12.252;2023-07-31T00:18:32;101194.88;;;28.14;58.80
38786;BME280;24535;45.508;12.252;2023-07-31T00:23:50;101210.31;;;28.13;59.05
38786;BME280;24535;45.508;12.252;2023-07-31T00:26:15;101205.94;;;28.12;58.81
38786;BME280;24535;45.508;12.252;2023-07-31T00:33:47;101211.75;;;28.09;58.95
38786;BME280;24535;45.508;12.252;2023-07-31T00:41:56;101198.41;;;28.01;59.26
38786;BME280;24535;45.508;12.252;2023-07-31T00:44:21;101205.88;;;27.99;59.36
38786;BME280;24535;45.508;12.252;2023-07-31T00:46:46;101202.34;;;27.98;59.39
38786;BME280;24535;45.508;12.252;2023-07-31T00:52:05;101198.59;;;27.93;59.76
38786;BME280;24535;45.508;12.252;2023-07-31T00:54:30;101200.66;;;27.91;59.56
38786;BME280;24535;45.508;12.252;2023-07-31T00:56:56;101194.63;;;27.89;59.81
38786;BME280;24535;45.508;12.252;2023-07-31T00:59:21;101200.47;;;27.85;59.70
38786;BME280;24535;45.508;12.252;2023-07-31T01:02:05;101197.13;;;27.83;59.97
38786;BME280;24535;45.508;12.252;2023-07-31T01:04:30;101200.03;;;27.82;60.15
38786;BME280;24535;45.508;12.252;2023-07-31T01:07:00;101204.63;;;27.81;60.00
38786;BME280;24535;45.508;12.252;2023-07-31T01:12:24;101204.41;;;27.83;59.90
38786;BME280;24535;45.508;12.252;2023-07-31T01:18:00;101202.94;;;27.87;59.58
38786;BME280;24535;45.508;12.252;2023-07-31T01:26:47;101200.88;;;27.76;59.97
38786;BME280;24535;45.508;12.252;2023-07-31T01:29:19;101205.00;;;27.72;60.23
38786;BME280;24535;45.508;12.252;2023-07-31T01:31:46;101198.31;;;27.68;60.25
38786;BME280;24535;45.508;12.252;2023-07-31T01:34:31;101198.72;;;27.65;59.83
38786;BME280;24535;45.508;12.252;2023-07-31T01:37:12;101197.88;;;27.64;59.98
38786;BME280;24535;45.508;12.252;2023-07-31T01:39:37;101192.25;;;27.59;59.98
38786;BME280;24535;45.508;12.252;2023-07-31T01:42:03;101189.72;;;27.57;59.96
38786;BME280;24535;45.508;12.252;2023-07-31T01:47:31;101205.75;;;27.52;59.79
38786;BME280;24535;45.508;12.252;2023-07-31T01:49:56;101198.84;;;27.50;60.20
38786;BME280;24535;45.508;12.252;2023-07-31T01:52:22;101204.50;;;27.48;60.35
38786;BME280;24535;45.508;12.252;2023-07-31T01:54:47;101209.25;;;27.46;60.17
38786;BME280;24535;45.508;12.252;2023-07-31T01:57:12;101209.47;;;27.45;60.17
38786;BME280;24535;45.508;12.252;2023-07-31T01:59:37;101206.97;;;27.43;60.76
38786;BME280;24535;45.508;12.252;2023-07-31T02:02:03;101200.91;;;27.41;60.26
38786;BME280;24535;45.508;12.252;2023-07-31T02:04:28;101196.72;;;27.39;60.40
38786;BME280;24535;45.508;12.252;2023-07-31T02:06:53;101198.59;;;27.38;60.56
38786;BME280;24535;45.508;12.252;2023-07-31T02:12:09;101197.34;;;27.34;60.56
38786;BME280;24535;45.508;12.252;2023-07-31T02:14:34;101195.69;;;27.33;60.76
38786;BME280;24535;45.508;12.252;2023-07-31T02:23:22;101189.41;;;27.26;60.88
38786;BME280;24535;45.508;12.252;2023-07-31T02:25:47;101198.34;;;27.26;60.50
38786;BME280;24535;45.508;12.252;2023-07-31T02:31:06;101193.53;;;27.22;60.62
38786;BME280;24535;45.508;12.252;2023-07-31T02:39:11;101193.09;;;27.18;60.56
38786;BME280;24535;45.508;12.252;2023-07-31T02:41:36;101191.44;;;27.17;60.43
38786;BME280;24535;45.508;12.252;2023-07-31T02:55:41;101193.22;;;27.03;60.47
38786;BME280;24535;45.508;12.252;2023-07-31T02:58:06;101191.75;;;27.01;60.73
38786;BME280;24535;45.508;12.252;2023-07-31T03:00:41;101193.41;;;27.02;60.95
38786;BME280;24535;45.508;12.252;2023-07-31T03:03:07;101196.09;;;27.02;60.60
38786;BME280;24535;45.508;12.252;2023-07-31T03:05:32;101188.66;;;27.04;60.42
38786;BME280;24535;45.508;12.252;2023-07-31T03:07:57;101187.59;;;27.05;60.49
38786;BME280;24535;45.508;12.252;2023-07-31T03:10:23;101190.31;;;27.05;60.10
38786;BME280;24535;45.508;12.252;2023-07-31T03:21:00;101197.16;;;27.01;60.10
38786;BME280;24535;45.508;12.252;2023-07-31T03:23:26;101199.22;;;26.99;60.15
38786;BME280;24535;45.508;12.252;2023-07-31T03:25:58;101195.88;;;26.97;60.37
38786;BME280;24535;45.508;12.252;2023-07-31T03:31:27;101206.47;;;26.92;60.35
38786;BME280;24535;45.508;12.252;2023-07-31T03:39:46;101209.56;;;26.88;60.61
38786;BME280;24535;45.508;12.252;2023-07-31T03:42:12;101204.97;;;26.89;60.14
38786;BME280;24535;45.508;12.252;2023-07-31T03:44:37;101211.63;;;26.86;60.55
38786;BME280;24535;45.508;12.252;2023-07-31T03:47:02;101212.03;;;26.83;60.41
38786;BME280;24535;45.508;12.252;2023-07-31T03:49:28;101208.66;;;26.81;60.24
38786;BME280;24535;45.508;12.252;2023-07-31T03:52:00;101204.50;;;26.79;60.29
38786;BME280;24535;45.508;12.252;2023-07-31T03:54:25;101205.72;;;26.76;59.97
38786;BME280;24535;45.508;12.252;2023-07-31T03:56:51;101197.84;;;26.75;59.97
38786;BME280;24535;45.508;12.252;2023-07-31T04:02:19;101201.13;;;26.70;60.05
38786;BME280;24535;45.508;12.252;2023-07-31T04:27:25;101211.19;;;26.83;58.97
38786;BME280;24535;45.508;12.252;2023-07-31T04:29:50;101206.41;;;26.85;59.41
38786;BME280;24535;45.508;12.252;2023-07-31T04:38:17;101202.94;;;26.91;58.67
38786;BME280;24535;45.508;12.252;2023-07-31T04:40:42;101203.09;;;26.90;58.44
38786;BME280;24535;45.508;12.252;2023-07-31T04:43:07;101213.53;;;26.93;59.22
38786;BME280;24535;45.508;12.252;2023-07-31T04:48:07;101205.25;;;27.01;58.45
38786;BME280;24535;45.508;12.252;2023-07-31T04:50:32;101209.63;;;27.02;58.26
38786;BME280;24535;45.508;12.252;2023-07-31T04:52:58;101210.91;;;27.06;58.47
38786;BME280;24535;45.508;12.252;2023-07-31T05:06:52;101219.38;;;27.24;57.88
38786;BME280;24535;45.508;12.252;2023-07-31T05:09:17;101213.97;;;27.24;57.12
38786;BME280;24535;45.508;12.252;2023-07-31T05:12:01;101206.88;;;27.23;56.52
38786;BME280;24535;45.508;12.252;2023-07-31T05:16:55;101215.41;;;27.20;56.57
38786;BME280;24535;45.508;12.252;2023-07-31T05:19:20;101211.84;;;27.20;56.68
38786;BME280;24535;45.508;12.252;2023-07-31T05:22:30;101209.97;;;27.20;56.89
38786;BME280;24535;45.508;12.252;2023-07-31T05:24:46;101219.16;;;27.19;56.94
38786;BME280;24535;45.508;12.252;2023-07-31T05:29:46;101222.03;;;27.18;56.33
38786;BME280;24535;45.508;12.252;2023-07-31T05:43:50;101213.78;;;27.32;55.67
38786;BME280;24535;45.508;12.252;2023-07-31T05:46:16;101212.97;;;27.32;55.97
38786;BME280;24535;45.508;12.252;2023-07-31T05:48:41;101217.13;;;27.34;55.91
38786;BME280;24535;45.508;12.252;2023-07-31T05:54:23;101225.22;;;27.34;55.83
38786;BME280;24535;45.508;12.252;2023-07-31T05:56:48;101226.09;;;27.35;55.65
38786;BME280;24535;45.508;12.252;2023-07-31T05:59:13;101223.56;;;27.33;55.97
38786;BME280;24535;45.508;12.252;2023-07-31T06:01:39;101225.22;;;27.34;55.56
38786;BME280;24535;45.508;12.252;2023-07-31T06:09:43;101222.34;;;27.43;55.69
38786;BME280;24535;45.508;12.252;2023-07-31T06:18:11;101220.13;;;27.53;55.96
38786;BME280;24535;45.508;12.252;2023-07-31T06:23:39;101228.28;;;27.59;55.44
38786;BME280;24535;45.508;12.252;2023-07-31T06:26:17;101229.09;;;27.60;55.59
38786;BME280;24535;45.508;12.252;2023-07-31T06:34:02;101227.00;;;27.62;55.13
38786;BME280;24535;45.508;12.252;2023-07-31T06:36:27;101221.41;;;27.64;55.08
38786;BME280;24535;45.508;12.252;2023-07-31T06:38:55;101233.69;;;27.66;55.18
38786;BME280;24535;45.508;12.252;2023-07-31T06:47:07;101231.91;;;27.80;54.98
38786;BME280;24535;45.508;12.252;2023-07-31T06:49:32;101226.72;;;27.85;55.04
38786;BME280;24535;45.508;12.252;2023-07-31T06:51:58;101232.16;;;27.92;55.01
38786;BME280;24535;45.508;12.252;2023-07-31T06:54:23;101231.13;;;28.06;55.44
38786;BME280;24535;45.508;12.252;2023-07-31T06:57:06;101233.88;;;28.26;55.05
38786;BME280;24535;45.508;12.252;2023-07-31T06:59:32;101231.81;;;28.48;54.42
38786;BME280;24535;45.508;12.252;2023-07-31T07:01:57;101233.50;;;28.62;53.73
38786;BME280;24535;45.508;12.252;2023-07-31T07:04:23;101236.59;;;28.72;53.68
38786;BME280;24535;45.508;12.252;2023-07-31T07:15:50;101246.41;;;28.80;53.39
38786;BME280;24535;45.508;12.252;2023-07-31T07:18:15;101245.97;;;28.83;53.51
38786;BME280;24535;45.508;12.252;2023-07-31T07:20:50;101248.88;;;28.88;53.64
38786;BME280;24535;45.508;12.252;2023-07-31T07:26:19;101243.91;;;28.98;53.53
38786;BME280;24535;45.508;12.252;2023-07-31T07:28:45;101254.94;;;29.03;53.11
38786;BME280;24535;45.508;12.252;2023-07-31T07:33:55;101250.97;;;29.13;53.40
38786;BME280;24535;45.508;12.252;2023-07-31T07:36:22;101247.63;;;29.17;53.56
38786;BME280;24535;45.508;12.252;2023-07-31T07:44:27;101260.94;;;29.32;53.67
38786;BME280;24535;45.508;12.252;2023-07-31T07:49:55;101257.31;;;29.51;53.05
38786;BME280;24535;45.508;12.252;2023-07-31T07:55:09;101261.88;;;29.64;52.50
38786;BME280;24535;45.508;12.252;2023-07-31T07:57:34;101254.31;;;29.73;52.34
38786;BME280;24535;45.508;12.252;2023-07-31T08:00:00;101256.75;;;29.88;52.38
38786;BME280;24535;45.508;12.252;2023-07-31T08:02:25;101251.25;;;30.01;52.16
38786;BME280;24535;45.508;12.252;2023-07-31T08:04:51;101254.72;;;30.15;52.12
38786;BME280;24535;45.508;12.252;2023-07-31T08:07:16;101250.84;;;30.36;52.42
38786;BME280;24535;45.508;12.252;2023-07-31T08:12:48;101261.88;;;30.91;51.38
38786;BME280;24535;45.508;12.252;2023-07-31T08:18:21;101253.84;;;31.58;49.98
38786;BME280;24535;45.508;12.252;2023-07-31T08:20:49;101246.75;;;31.87;49.43
38786;BME280;24535;45.508;12.252;2023-07-31T08:23:33;101253.13;;;32.11;48.96
38786;BME280;24535;45.508;12.252;2023-07-31T08:25:59;101240.44;;;32.16;48.24
38786;BME280;24535;45.508;12.252;2023-07-31T08:31:31;101253.22;;;32.04;48.40
38786;BME280;24535;45.508;12.252;2023-07-31T08:33:56;101258.41;;;31.94;48.69
38786;BME280;24535;45.508;12.252;2023-07-31T08:41:57;101263.03;;;31.75;48.73
38786;BME280;24535;45.508;12.252;2023-07-31T08:44:22;101266.59;;;31.75;48.66
38786;BME280;24535;45.508;12.252;2023-07-31T08:46:49;101256.88;;;31.80;48.73
38786;BME280;24535;45.508;12.252;2023-07-31T08:49:18;101253.28;;;31.86;48.74
38786;BME280;24535;45.508;12.252;2023-07-31T08:52:04;101258.78;;;31.97;49.02
38786;BME280;24535;45.508;12.252;2023-07-31T08:59:41;101251.88;;;32.37;48.16
38786;BME280;24535;45.508;12.252;2023-07-31T09:02:07;101249.19;;;32.48;47.48
38786;BME280;24535;45.508;12.252;2023-07-31T09:04:33;101254.28;;;32.57;47.02
38786;BME280;24535;45.508;12.252;2023-07-31T09:12:44;101259.75;;;32.68;47.13
38786;BME280;24535;45.508;12.252;2023-07-31T09:26:56;101262.25;;;32.46;47.42
38786;BME280;24535;45.508;12.252;2023-07-31T09:32:17;101259.53;;;32.46;46.84
38786;BME280;24535;45.508;12.252;2023-07-31T09:34:58;101263.66;;;32.49;47.20
38786;BME280;24535;45.508;12.252;2023-07-31T09:48:43;101266.56;;;32.36;47.59
38786;BME280;24535;45.508;12.252;2023-07-31T09:51:08;101272.28;;;32.34;48.33
38786;BME280;24535;45.508;12.252;2023-07-31T09:53:33;101263.41;;;32.39;47.56
38786;BME280;24535;45.508;12.252;2023-07-31T09:56:08;101249.78;;;32.39;47.49
38786;BME280;24535;45.508;12.252;2023-07-31T09:58:34;101263.28;;;32.34;46.89
38786;BME280;24535;45.508;12.252;2023-07-31T10:01:00;101269.19;;;32.31;47.45
38786;BME280;24535;45.508;12.252;2023-07-31T10:09:25;101251.22;;;32.11;47.58
38786;BME280;24535;45.508;12.252;2023-07-31T10:12:00;101246.22;;;32.08;47.62
38786;BME280;24535;45.508;12.252;2023-07-31T10:14:40;101240.66;;;32.03;46.92
38786;BME280;24535;45.508;12.252;2023-07-31T10:17:30;101240.06;;;32.01;46.84
38786;BME280;24535;45.508;12.252;2023-07-31T10:19:56;101228.56;;;31.99;45.86
38786;BME280;24535;45.508;12.252;2023-07-31T10:22:23;101220.00;;;31.95;46.07
38786;BME280;24535;45.508;12.252;2023-07-31T10:24:48;101221.53;;;31.91;46.42
38786;BME280;24535;45.508;12.252;2023-07-31T10:27:15;101215.94;;;31.86;47.09
38786;BME280;24535;45.508;12.252;2023-07-31T10:35:47;101222.97;;;31.75;47.02
38786;BME280;24535;45.508;12.252;2023-07-31T10:38:12;101214.22;;;31.73;47.25
38786;BME280;24535;45.508;12.252;2023-07-31T10:40:38;101216.13;;;31.73;47.22
38786;BME280;24535;45.508;12.252;2023-07-31T10:43:03;101221.78;;;31.71;47.25
38786;BME280;24535;45.508;12.252;2023-07-31T10:45:37;101229.13;;;31.71;47.17
38786;BME280;24535;45.508;12.252;2023-07-31T10:50:28;101222.28;;;31.68;47.19
38786;BME280;24535;45.508;12.252;2023-07-31T10:53:06;101224.38;;;31.66;47.38
38786;BME280;24535;45.508;12.252;2023-07-31T10:55:47;101227.09;;;31.66;47.30
38786;BME280;24535;45.508;12.252;2023-07-31T11:04:10;101214.41;;;31.60;47.64
38786;BME280;24535;45.508;12.252;2023-07-31T11:07:09;101215.44;;;31.59;47.82
38786;BME280;24535;45.508;12.252;2023-07-31T11:12:10;101205.03;;;31.56;47.79
38786;BME280;24535;45.508;12.252;2023-07-31T11:14:37;101205.25;;;31.55;47.69
38786;BME280;24535;45.508;12.252;2023-07-31T11:17:17;101203.13;;;31.57;46.84
38786;BME280;24535;45.508;12.252;2023-07-31T11:19:42;101208.34;;;31.58;47.04
38786;BME280;24535;45.508;12.252;2023-07-31T11:22:08;101205.63;;;31.58;45.63
38786;BME280;24535;45.508;12.252;2023-07-31T11:24:34;101208.34;;;31.58;46.20
38786;BME280;24535;45.508;12.252;2023-07-31T11:26:59;101196.88;;;31.56;46.39
38786;BME280;24535;45.508;12.252;2023-07-31T11:29:27;101194.34;;;31.55;46.31
38786;BME280;24535;45.508;12.252;2023-07-31T11:31:52;101196.50;;;31.52;46.43
38786;BME280;24535;45.508;12.252;2023-07-31T11:34:18;101190.56;;;31.56;46.28
38786;BME280;24535;45.508;12.252;2023-07-31T11:42:19;101189.72;;;31.55;46.00
38786;BME280;24535;45.508;12.252;2023-07-31T11:47:46;101184.78;;;31.52;45.30
38786;BME280;24535;45.508;12.252;2023-07-31T11:55:45;101183.56;;;31.48;45.39
38786;BME280;24535;45.508;12.252;2023-07-31T11:58:11;101184.03;;;31.45;45.43
38786;BME280;24535;45.508;12.252;2023-07-31T12:00:52;101177.13;;;31.42;45.55
38786;BME280;24535;45.508;12.252;2023-07-31T12:03:18;101177.38;;;31.41;45.68
38786;BME280;24535;45.508;12.252;2023-07-31T12:05:43;101182.81;;;31.41;46.27
38786;BME280;24535;45.508;12.252;2023-07-31T12:08:15;101176.53;;;31.40;45.95
38786;BME280;24535;45.508;12.252;2023-07-31T12:10:41;101173.00;;;31.40;46.44
38786;BME280;24535;45.508;12.252;2023-07-31T12:13:10;101166.69;;;31.39;46.71
38786;BME280;24535;45.508;12.252;2023-07-31T12:15:39;101164.22;;;31.38;47.10
38786;BME280;24535;45.508;12.252;2023-07-31T12:18:06;101160.66;;;31.37;46.86
38786;BME280;24535;45.508;12.252;2023-07-31T12:20:31;101165.09;;;31.32;47.04
38786;BME280;24535;45.508;12.252;2023-07-31T12:22:57;101164.53;;;31.30;46.87
38786;BME280;24535;45.508;12.252;2023-07-31T12:25:27;101160.97;;;31.29;47.17
38786;BME280;24535;45.508;12.252;2023-07-31T12:27:53;101161.38;;;31.26;47.13
38786;BME280;24535;45.508;12.252;2023-07-31T12:30:34;101146.34;;;31.23;47.26
38786;BME280;24535;45.508;12.252;2023-07-31T12:33:06;101148.22;;;31.23;47.49
38786;BME280;24535;45.508;12.252;2023-07-31T12:35:45;101143.03;;;31.21;47.31
38786;BME280;24535;45.508;12.252;2023-07-31T12:38:11;101142.19;;;31.21;47.02
38786;BME280;24535;45.508;12.252;2023-07-31T12:40:37;101135.69;;;31.22;46.86
38786;BME280;24535;45.508;12.252;2023-07-31T12:43:04;101132.97;;;31.22;46.47
38786;BME280;24535;45.508;12.252;2023-07-31T12:45:30;101128.13;;;31.24;46.37
38786;BME280;24535;45.508;12.252;2023-07-31T12:50:56;101125.41;;;31.24;46.84
38786;BME280;24535;45.508;12.252;2023-07-31T12:53:21;101120.16;;;31.22;46.90
38786;BME280;24535;45.508;12.252;2023-07-31T12:55:47;101129.41;;;31.21;46.91
38786;BME280;24535;45.508;12.252;2023-07-31T12:58:12;101123.97;;;31.21;47.17
38786;BME280;24535;45.508;12.252;2023-07-31T13:00:37;101125.25;;;31.19;47.34
38786;BME280;24535;45.508;12.252;2023-07-31T13:09:45;101111.63;;;31.19;47.17
38786;BME280;24535;45.508;12.252;2023-07-31T13:11:48;101104.53;;;31.18;47.19
38786;BME280;24535;45.508;12.252;2023-07-31T13:14:13;101107.25;;;31.18;47.24
38786;BME280;24535;45.508;12.252;2023-07-31T13:16:39;101100.97;;;31.17;47.17
38786;BME280;24535;45.508;12.252;2023-07-31T13:19:16;101094.72;;;31.17;47.48
38786;BME280;24535;45.508;12.252;2023-07-31T13:21:41;101100.16;;;31.17;47.42
38786;BME280;24535;45.508;12.252;2023-07-31T13:24:13;101098.72;;;31.14;47.67
38786;BME280;24535;45.508;12.252;2023-07-31T13:26:38;101090.78;;;31.13;47.94
38786;BME280;24535;45.508;12.252;2023-07-31T13:29:09;101087.44;;;31.11;47.97
38786;BME280;24535;45.508;12.252;2023-07-31T13:40:09;101080.59;;;31.08;47.03
38786;BME280;24535;45.508;12.252;2023-07-31T13:45:15;101070.53;;;31.09;46.48
38786;BME280;24535;45.508;12.252;2023-07-31T13:47:40;101075.72;;;31.10;46.54
38786;BME280;24535;45.508;12.252;2023-07-31T13:50:21;101073.00;;;31.10;46.72
38786;BME280;24535;45.508;12.252;2023-07-31T13:52:47;101074.91;;;31.10;47.11
38786;BME280;24535;45.508;12.252;2023-07-31T13:55:13;101077.63;;;31.10;46.59
38786;BME280;24535;45.508;12.252;2023-07-31T13:57:44;101077.38;;;31.11;46.54
38786;BME280;24535;45.508;12.252;2023-07-31T14:00:12;101071.94;;;31.11;45.75
38786;BME280;24535;45.508;12.252;2023-07-31T14:11:19;101058.81;;;31.08;46.54
38786;BME280;24535;45.508;12.252;2023-07-31T14:13:44;101068.03;;;31.07;47.00
38786;BME280;24535;45.508;12.252;2023-07-31T14:18:44;101056.53;;;31.05;46.65
38786;BME280;24535;45.508;12.252;2023-07-31T14:21:10;101056.78;;;31.03;46.59
38786;BME280;24535;45.508;12.252;2023-07-31T14:23:36;101053.00;;;31.05;46.86
38786;BME280;24535;45.508;12.252;2023-07-31T14:26:01;101056.78;;;31.03;45.41
38786;BME280;24535;45.508;12.252;2023-07-31T14:28:26;101050.03;;;31.06;45.88
38786;BME280;24535;45.508;12.252;2023-07-31T14:33:27;101054.06;;;31.03;46.58
38786;BME280;24535;45.508;12.252;2023-07-31T14:35:52;101044.00;;;31.04;45.31
38786;BME280;24535;45.508;12.252;2023-07-31T14:38:17;101037.50;;;31.05;45.36
38786;BME280;24535;45.508;12.252;2023-07-31T14:40:43;101043.31;;;31.09;45.46
38786;BME280;24535;45.508;12.252;2023-07-31T14:43:08;101037.03;;;31.08;45.59
38786;BME280;24535;45.508;12.252;2023-07-31T14:48:36;101045.91;;;31.03;45.38
38786;BME280;24535;45.508;12.252;2023-07-31T14:51:02;101037.72;;;31.03;45.84
38786;BME280;24535;45.508;12.252;2023-07-31T14:53:27;101031.44;;;31.03;46.38
38786;BME280;24535;45.508;12.252;2023-07-31T15:01:30;101027.88;;;31.02;46.69
38786;BME280;24535;45.508;12.252;2023-07-31T15:03:55;101027.31;;;31.00;46.49
38786;BME280;24535;45.508;12.252;2023-07-31T15:09:33;101023.75;;;31.00;46.83
38786;BME280;24535;45.508;12.252;2023-07-31T15:11:58;101018.31;;;31.00;46.97
38786;BME280;24535;45.508;12.252;2023-07-31T15:14:24;101019.34;;;30.99;47.04
38786;BME280;24535;45.508;12.252;2023-07-31T15:19:43;101008.47;;;30.99;46.94
38786;BME280;24535;45.508;12.252;2023-07-31T15:22:08;101004.91;;;30.98;47.32
38786;BME280;24535;45.508;12.252;2023-07-31T15:24:34;101009.53;;;30.98;46.80
38786;BME280;24535;45.508;12.252;2023-07-31T15:26:59;101004.91;;;30.98;46.81
38786;BME280;24535;45.508;12.252;2023-07-31T15:32:10;101005.75;;;30.99;47.13
38786;BME280;24535;45.508;12.252;2023-07-31T15:34:36;101001.38;;;30.98;47.21
38786;BME280;24535;45.508;12.252;2023-07-31T15:59:19;100990.03;;;31.01;46.68
38786;BME280;24535;45.508;12.252;2023-07-31T16:01:44;100980.19;;;31.00;46.82
38786;BME280;24535;45.508;12.252;2023-07-31T16:09:51;100989.41;;;30.99;46.59
38786;BME280;24535;45.508;12.252;2023-07-31T16:12:18;100981.84;;;31.01;46.40
38786;BME280;24535;45.508;12.252;2023-07-31T16:14:44;100978.06;;;31.02;46.34
38786;BME280;24535;45.508;12.252;2023-07-31T16:20:03;100971.56;;;31.03;46.57
38786;BME280;24535;45.508;12.252;2023-07-31T16:25:18;100970.50;;;31.04;46.24
38786;BME280;24535;45.508;12.252;2023-07-31T16:33:22;100965.91;;;31.05;46.70
38786;BME280;24535;45.508;12.252;2023-07-31T16:38:22;100965.53;;;31.01;46.72
38786;BME280;24535;45.508;12.252;2023-07-31T16:40:47;100968.69;;;30.98;47.06
38786;BME280;24535;45.508;12.252;2023-07-31T16:49:18;100966.91;;;30.92;47.44
38786;BME280;24535;45.508;12.252;2023-07-31T16:54:52;100966.56;;;30.88;47.55
38786;BME280;24535;45.508;12.252;2023-07-31T16:57:36;100968.66;;;30.86;47.55
38786;BME280;24535;45.508;12.252;2023-07-31T17:00:01;100970.78;;;30.84;47.37
38786;BME280;24535;45.508;12.252;2023-07-31T17:02:27;100967.72;;;30.81;47.57
38786;BME280;24535;45.508;12.252;2023-07-31T17:04:52;100961.44;;;30.80;47.86
38786;BME280;24535;45.508;12.252;2023-07-31T17:13:28;100956.69;;;30.75;48.28
38786;BME280;24535;45.508;12.252;2023-07-31T17:15:53;100957.72;;;30.74;48.32
38786;BME280;24535;45.508;12.252;2023-07-31T17:18:18;100956.06;;;30.73;47.82
38786;BME280;24535;45.508;12.252;2023-07-31T17:20:44;100962.56;;;30.72;48.06
38786;BME280;24535;45.508;12.252;2023-07-31T17:26:12;100957.34;;;30.71;48.50
38786;BME280;24535;45.508;12.252;2023-07-31T17:31:40;100958.63;;;30.68;48.34
38786;BME280;24535;45.508;12.252;2023-07-31T17:39:43;100961.81;;;30.65;48.59
38786;BME280;24535;45.508;12.252;2023-07-31T17:42:09;100966.41;;;30.65;48.63
38786;BME280;24535;45.508;12.252;2023-07-31T17:44:35;100965.59;;;30.64;48.94
38786;BME280;24535;45.508;12.252;2023-07-31T17:47:01;100963.94;;;30.63;48.59
38786;BME280;24535;45.508;12.252;2023-07-31T17:54:56;100969.59;;;30.62;48.70
38786;BME280;24535;45.508;12.252;2023-07-31T18:03:00;100980.94;;;30.59;49.27
38786;BME280;24535;45.508;12.252;2023-07-31T18:05:25;100981.78;;;30.59;48.80
38786;BME280;24535;45.508;12.252;2023-07-31T18:07:54;100978.22;;;30.59;48.96
38786;BME280;24535;45.508;12.252;2023-07-31T18:13:18;100980.09;;;30.58;49.04
38786;BME280;24535;45.508;12.252;2023-07-31T18:15:44;100976.78;;;30.56;48.81
38786;BME280;24535;45.508;12.252;2023-07-31T18:21:06;100972.19;;;30.57;49.15
38786;BME280;24535;45.508;12.252;2023-07-31T18:31:55;100981.84;;;30.52;48.74
38786;BME280;24535;45.508;12.252;2023-07-31T18:34:21;100980.41;;;30.50;48.87
38786;BME280;24535;45.508;12.252;2023-07-31T18:36:46;100983.38;;;30.48;49.17
38786;BME280;24535;45.508;12.252;2023-07-31T18:39:33;100983.63;;;30.47;49.18
38786;BME280;24535;45.508;12.252;2023-07-31T18:41:57;100988.44;;;30.45;49.20
38786;BME280;24535;45.508;12.252;2023-07-31T18:49:44;101000.38;;;30.44;49.98
38786;BME280;24535;45.508;12.252;2023-07-31T18:52:10;101000.81;;;30.41;49.93
38786;BME280;24535;45.508;12.252;2023-07-31T18:54:35;101000.00;;;30.40;50.01
38786;BME280;24535;45.508;12.252;2023-07-31T18:57:00;100997.28;;;30.40;49.72
38786;BME280;24535;45.508;12.252;2023-07-31T18:59:26;101005.69;;;30.39;49.97
38786;BME280;24535;45.508;12.252;2023-07-31T19:01:51;101008.00;;;30.35;50.30
38786;BME280;24535;45.508;12.252;2023-07-31T19:04:17;101009.91;;;30.35;50.49
38786;BME280;24535;45.508;12.252;2023-07-31T19:06:42;101018.28;;;30.33;50.12
38786;BME280;24535;45.508;12.252;2023-07-31T19:09:09;101020.78;;;30.35;50.41
38786;BME280;24535;45.508;12.252;2023-07-31T19:11:35;101020.78;;;30.35;50.51
38786;BME280;24535;45.508;12.252;2023-07-31T19:14:00;101019.91;;;30.34;50.60
38786;BME280;24535;45.508;12.252;2023-07-31T19:16:25;101027.25;;;30.34;50.43
38786;BME280;24535;45.508;12.252;2023-07-31T19:18:51;101019.09;;;30.34;51.07
38786;BME280;24535;45.508;12.252;2023-07-31T19:24:06;101020.16;;;30.33;50.98
38786;BME280;24535;45.508;12.252;2023-07-31T19:26:37;101026.66;;;30.32;50.95
38786;BME280;24535;45.508;12.252;2023-07-31T19:29:05;101025.00;;;30.31;51.25
38786;BME280;24535;45.508;12.252;2023-07-31T19:31:31;101031.47;;;30.29;51.25
38786;BME280;24535;45.508;12.252;2023-07-31T19:39:58;101040.94;;;30.27;51.63
38786;BME280;24535;45.508;12.252;2023-07-31T20:15:17;101005.00;;;30.00;52.89
38786;BME280;24535;45.508;12.252;2023-07-31T20:17:52;101013.59;;;29.97;52.72
38786;BME280;24535;45.508;12.252;2023-07-31T20:20:17;101005.69;;;29.95;52.82
38786;BME280;24535;45.508;12.252;2023-07-31T20:22:45;101004.84;;;29.95;52.83
38786;BME280;24535;45.508;12.252;2023-07-31T20:25:13;101003.41;;;29.92;53.20
38786;BME280;24535;45.508;12.252;2023-07-31T20:27:38;100998.22;;;29.91;53.40
38786;BME280;24535;45.508;12.252;2023-07-31T20:30:13;100994.03;;;29.88;53.46
38786;BME280;24535;45.508;12.252;2023-07-31T20:32:47;100991.75;;;29.85;53.06
38786;BME280;24535;45.508;12.252;2023-07-31T20:38:09;100979.09;;;29.79;53.56
38786;BME280;24535;45.508;12.252;2023-07-31T20:40:34;100981.19;;;29.77;53.69
38786;BME280;24535;45.508;12.252;2023-07-31T20:43:00;100974.53;;;29.73;54.08
38786;BME280;24535;45.508;12.252;2023-07-31T20:45:25;100974.16;;;29.69;53.73
38786;BME280;24535;45.508;12.252;2023-07-31T20:48:00;100970.84;;;29.67;54.34